Time;durP1;ratioP1;P1;durP2;ratioP2;P2;SDS_P1;SDS_P2;PMS_P1;PMS_P2;Temp;Humidity;BMP_temperature;BMP_pressure;BME280_temperature;BME280_humidity;BME280_pressure;Samples;Min_cycle;Max_cycle;Signal;HPM_P1;HPM_P2
2023/04/09 00:01:56;;;;;;;12.38;5.65;;;7.40;99.70;;;;;;5139694;27;20065;-91
2023/04/09 00:04:22;;;;;;;9.55;5.28;;;7.30;99.90;;;;;;5138750;27;20039;-91
2023/04/09 00:06:49;;;;;;;12.10;5.40;;;7.30;99.90;;;;;;5139400;27;20045;-90
2023/04/09 00:09:15;;;;;;;9.07;5.57;;;7.30;99.90;;;;;;5139371;27;20032;-92
2023/04/09 00:11:41;;;;;;;8.57;5.35;;;7.30;99.90;;;;;;5138896;28;20066;-93
2023/04/09 00:14:06;;;;;;;9.48;5.72;;;7.20;99.90;;;;;;5139114;28;20028;-91
2023/04/09 00:16:32;;;;;;;14.75;5.72;;;7.20;99.90;;;;;;5139933;28;20019;-91
2023/04/09 00:18:58;;;;;;;11.88;5.95;;;7.10;99.90;;;;;;5137959;28;20038;-92
2023/04/09 00:21:23;;;;;;;12.65;6.47;;;7.10;99.90;;;;;;5139282;28;20051;-91
2023/04/09 00:23:49;;;;;;;9.93;5.60;;;7.10;99.90;;;;;;5138913;28;20016;-91
2023/04/09 00:26:15;;;;;;;12.00;5.75;;;7.00;99.90;;;;;;5139053;28;20099;-92
2023/04/09 00:28:41;;;;;;;10.57;5.03;;;7.00;99.90;;;;;;5138929;28;20028;-93
2023/04/09 00:31:07;;;;;;;10.25;5.50;;;7.00;99.90;;;;;;5138486;28;20048;-92
2023/04/09 00:33:33;;;;;;;11.50;5.38;;;7.00;99.90;;;;;;5139165;28;20039;-92
2023/04/09 00:35:59;;;;;;;9.07;5.30;;;7.00;99.90;;;;;;5138826;28;20031;-92
2023/04/09 00:38:24;;;;;;;9.13;5.07;;;6.90;99.90;;;;;;5139169;28;20040;-92
2023/04/09 00:40:50;;;;;;;12.63;5.57;;;6.90;99.90;;;;;;5138583;28;20030;-93
2023/04/09 00:43:17;;;;;;;11.35;5.50;;;6.90;99.90;;;;;;5138828;28;20031;-92
2023/04/09 00:45:45;;;;;;;12.82;6.20;;;6.90;99.90;;;;;;5138631;28;20015;-91
2023/04/09 00:48:15;;;;;;;12.43;5.30;;;6.90;99.90;;;;;;5138170;28;20054;-91
2023/04/09 00:50:42;;;;;;;10.88;6.07;;;6.80;99.90;;;;;;5138345;28;20031;-91
2023/04/09 00:53:09;;;;;;;11.63;6.10;;;6.80;99.90;;;;;;5137091;28;20039;-93
2023/04/09 00:55:35;;;;;;;13.05;5.85;;;6.80;99.90;;;;;;5137784;28;20281;-92
2023/04/09 00:58:02;;;;;;;13.40;6.28;;;6.80;99.90;;;;;;5138207;28;20042;-93
2023/04/09 01:00:27;;;;;;;9.25;5.35;;;6.70;99.90;;;;;;5138032;28;20019;-92
2023/04/09 01:02:57;;;;;;;13.60;5.72;;;6.70;99.90;;;;;;5138036;28;20031;-92
2023/04/09 01:05:33;;;;;;;12.02;5.93;;;6.70;99.90;;;;;;5137994;28;20039;-92
2023/04/09 01:08:15;;;;;;;10.45;5.53;;;6.70;99.90;;;;;;5137981;28;20042;-90
2023/04/09 01:10:46;;;;;;;11.82;5.63;;;6.80;99.90;;;;;;5138061;28;20035;-93
2023/04/09 01:13:17;;;;;;;12.30;5.95;;;6.70;99.90;;;;;;5138062;28;20007;-92
2023/04/09 01:15:51;;;;;;;10.90;5.60;;;6.70;99.90;;;;;;5138574;28;20095;-91
2023/04/09 01:18:40;;;;;;;13.70;5.80;;;6.60;99.90;;;;;;5138296;28;20096;-91
2023/04/09 01:21:12;;;;;;;10.85;5.80;;;6.60;99.90;;;;;;5137568;28;20032;-90
2023/04/09 01:24:16;;;;;;;11.55;5.15;;;6.60;99.90;;;;;;5134737;28;20018;-92
2023/04/09 01:27:02;;;;;;;13.55;6.13;;;6.60;99.90;;;;;;5137514;28;20721;-91
2023/04/09 01:29:39;;;;;;;14.05;5.93;;;6.60;99.90;;;;;;5128932;28;20031;-93
2023/04/09 01:32:06;;;;;;;11.02;6.15;;;6.60;99.90;;;;;;5123180;28;20096;-93
2023/04/09 01:34:33;;;;;;;11.55;6.32;;;6.60;99.90;;;;;;5137584;28;20016;-91
2023/04/09 01:37:01;;;;;;;10.77;5.22;;;6.50;99.90;;;;;;5134194;28;20027;-93
2023/04/09 01:39:28;;;;;;;11.45;5.60;;;6.50;99.90;;;;;;5137811;28;20043;-90
2023/04/09 01:41:55;;;;;;;10.73;5.53;;;6.50;99.90;;;;;;5138105;28;20032;-91
2023/04/09 01:44:22;;;;;;;10.55;6.05;;;6.50;99.90;;;;;;5138020;28;20023;-93
2023/04/09 01:46:49;;;;;;;10.30;5.70;;;6.50;99.90;;;;;;5137349;28;20031;-94
2023/04/09 01:49:15;;;;;;;13.30;5.97;;;6.50;99.90;;;;;;5137268;28;20031;-92
2023/04/09 01:51:42;;;;;;;19.52;8.07;;;6.50;99.90;;;;;;5137181;28;20053;-91
2023/04/09 01:54:07;;;;;;;10.18;5.70;;;6.50;99.90;;;;;;5136280;28;20027;-90
2023/04/09 01:56:45;;;;;;;12.45;5.88;;;6.40;99.90;;;;;;5114324;28;20031;-92
2023/04/09 01:59:11;;;;;;;12.30;6.13;;;6.40;99.90;;;;;;5137116;28;20083;-91
2023/04/09 02:01:53;;;;;;;12.48;6.32;;;6.40;99.90;;;;;;5130966;28;20050;-91
2023/04/09 02:04:25;;;;;;;10.57;5.65;;;6.30;99.90;;;;;;5125049;28;20060;-90
2023/04/09 02:07:01;;;;;;;11.57;7.00;;;6.30;99.90;;;;;;5123715;28;20291;-92
2023/04/09 02:09:29;;;;;;;13.40;6.47;;;6.30;99.90;;;;;;5120913;28;20062;-94
2023/04/09 02:12:03;;;;;;;11.55;6.07;;;6.30;99.90;;;;;;5119849;28;20047;-92
2023/04/09 02:14:31;;;;;;;11.05;6.30;;;6.20;99.90;;;;;;5114520;28;20035;-91
2023/04/09 02:16:58;;;;;;;13.68;7.07;;;6.20;99.90;;;;;;5117218;28;20034;-91
2023/04/09 02:19:25;;;;;;;11.88;6.70;;;6.20;99.90;;;;;;5122192;28;20114;-94
2023/04/09 02:21:51;;;;;;;9.70;5.65;;;6.20;99.90;;;;;;5114107;28;20027;-93
2023/04/09 02:24:16;;;;;;;15.15;7.05;;;6.10;99.90;;;;;;5127468;28;20024;-92
2023/04/09 02:26:42;;;;;;;11.93;6.60;;;6.10;99.90;;;;;;5115700;28;20098;-93
2023/04/09 02:29:08;;;;;;;12.25;6.88;;;6.10;99.90;;;;;;5132478;28;20065;-92
2023/04/09 02:31:34;;;;;;;12.18;6.60;;;6.00;99.90;;;;;;5135685;28;20022;-92
2023/04/09 02:33:59;;;;;;;11.45;6.75;;;6.00;99.90;;;;;;5135735;28;20039;-93
2023/04/09 02:36:26;;;;;;;12.68;6.00;;;5.90;99.90;;;;;;5135240;28;20039;-91
2023/04/09 02:38:52;;;;;;;15.35;6.00;;;5.90;99.90;;;;;;5135594;28;20049;-92
2023/04/09 02:41:17;;;;;;;12.20;6.03;;;5.90;99.90;;;;;;5135603;28;20020;-92
2023/04/09 02:43:43;;;;;;;15.00;7.00;;;5.80;99.90;;;;;;5135745;28;20016;-92
2023/04/09 02:46:09;;;;;;;12.50;6.00;;;5.80;99.90;;;;;;5135127;28;20023;-91
2023/04/09 02:48:34;;;;;;;11.07;5.57;;;5.80;99.90;;;;;;5135756;28;20023;-92
2023/04/09 02:51:00;;;;;;;10.52;6.20;;;5.80;99.90;;;;;;5136065;28;20028;-93
2023/04/09 02:53:26;;;;;;;12.05;6.28;;;5.80;99.90;;;;;;5135782;28;20037;-93
2023/04/09 02:55:51;;;;;;;11.70;6.25;;;5.80;99.90;;;;;;5135986;28;20028;-92
2023/04/09 02:58:17;;;;;;;11.18;6.35;;;5.70;99.90;;;;;;5136568;28;20042;-91
2023/04/09 03:00:43;;;;;;;12.20;5.80;;;5.70;99.90;;;;;;5136028;28;20031;-92
2023/04/09 03:03:08;;;;;;;13.15;6.35;;;5.70;99.90;;;;;;5136123;28;20019;-92
2023/04/09 03:05:35;;;;;;;13.30;6.25;;;5.60;99.90;;;;;;5136055;28;20051;-91
2023/04/09 03:08:01;;;;;;;11.55;6.00;;;5.60;99.90;;;;;;5136559;28;20100;-91
2023/04/09 03:10:26;;;;;;;10.25;6.53;;;5.50;99.90;;;;;;5136224;28;20095;-92
2023/04/09 03:12:52;;;;;;;10.52;5.75;;;5.50;99.90;;;;;;5135980;28;20039;-92
2023/04/09 03:15:18;;;;;;;13.30;6.25;;;5.50;99.90;;;;;;5136264;28;20011;-93
2023/04/09 03:17:43;;;;;;;12.30;6.43;;;5.50;99.90;;;;;;5136723;28;20039;-90
2023/04/09 03:20:09;;;;;;;12.38;7.00;;;5.50;99.90;;;;;;5136259;28;20045;-91
2023/04/09 03:22:37;;;;;;;10.88;6.20;;;5.50;99.90;;;;;;5136280;28;20035;-92
2023/04/09 03:25:02;;;;;;;12.80;6.90;;;5.40;99.90;;;;;;5136283;28;20039;-92
2023/04/09 03:27:28;;;;;;;15.63;7.32;;;5.40;99.90;;;;;;5133120;28;20039;-92
2023/04/09 03:29:57;;;;;;;13.82;7.05;;;5.40;99.90;;;;;;5122662;28;20082;-92
2023/04/09 03:32:23;;;;;;;12.55;7.13;;;5.30;99.90;;;;;;5136025;28;20024;-92
2023/04/09 03:34:49;;;;;;;12.90;6.85;;;5.20;99.90;;;;;;5135760;28;20116;-91
2023/04/09 03:37:15;;;;;;;10.52;6.45;;;5.20;99.90;;;;;;5136170;28;20607;-91
2023/04/09 03:39:40;;;;;;;20.48;8.15;;;5.20;99.90;;;;;;5136246;28;20020;-93
2023/04/09 03:42:06;;;;;;;14.70;8.02;;;5.20;99.90;;;;;;5135977;28;20037;-92
2023/04/09 03:44:32;;;;;;;12.63;6.97;;;5.10;99.90;;;;;;5135992;28;20034;-93
2023/04/09 03:46:58;;;;;;;16.75;7.47;;;5.10;99.90;;;;;;5128849;28;20044;-92
2023/04/09 03:49:23;;;;;;;16.15;8.13;;;5.10;99.90;;;;;;5123232;28;20043;-92
2023/04/09 03:51:49;;;;;;;13.18;7.15;;;5.00;99.90;;;;;;5135853;28;20035;-91
2023/04/09 03:54:15;;;;;;;11.70;6.88;;;5.00;99.90;;;;;;5128694;28;20091;-92
2023/04/09 03:56:41;;;;;;;9.77;5.93;;;4.90;99.90;;;;;;5134503;28;20038;-92
2023/04/09 03:59:06;;;;;;;13.00;6.75;;;4.90;99.90;;;;;;5139409;28;20035;-91
2023/04/09 04:01:33;;;;;;;16.52;7.85;;;4.90;99.90;;;;;;5139255;28;20029;-92
2023/04/09 04:03:59;;;;;;;12.48;6.65;;;4.80;99.90;;;;;;5139528;28;20079;-90
2023/04/09 04:06:26;;;;;;;10.95;6.78;;;4.80;99.90;;;;;;5138680;28;20033;-91
2023/04/09 04:08:51;;;;;;;12.85;7.15;;;4.80;99.90;;;;;;5132941;28;20032;-91
2023/04/09 04:11:17;;;;;;;11.68;6.32;;;4.80;99.90;;;;;;5136673;28;20081;-91
2023/04/09 04:13:43;;;;;;;16.75;7.38;;;4.80;99.90;;;;;;5137215;28;20027;-91
2023/04/09 04:16:09;;;;;;;12.02;7.32;;;4.80;99.90;;;;;;5133758;28;20030;-90
2023/04/09 04:18:35;;;;;;;14.30;7.68;;;4.70;99.90;;;;;;5125964;28;20099;-90
2023/04/09 04:21:00;;;;;;;12.82;7.10;;;4.80;99.90;;;;;;5136906;28;20052;-91
2023/04/09 04:23:26;;;;;;;13.30;6.55;;;4.70;99.90;;;;;;5133891;28;20031;-91
2023/04/09 04:25:52;;;;;;;12.80;7.28;;;4.70;99.90;;;;;;5130593;28;20015;-91
2023/04/09 04:28:18;;;;;;;11.93;7.00;;;4.70;99.90;;;;;;5136210;28;20027;-91
2023/04/09 04:30:43;;;;;;;12.90;6.53;;;4.70;99.90;;;;;;5136217;28;20024;-91
2023/04/09 04:33:09;;;;;;;11.85;6.30;;;4.60;99.90;;;;;;5136644;28;20027;-91
2023/04/09 04:35:35;;;;;;;14.85;8.07;;;4.60;99.90;;;;;;5137847;28;20030;-90
2023/04/09 04:38:01;;;;;;;10.65;6.50;;;4.60;99.90;;;;;;5133043;28;20052;-91
2023/04/09 04:40:27;;;;;;;15.00;7.57;;;4.50;99.90;;;;;;5137624;28;20027;-91
2023/04/09 04:42:52;;;;;;;12.05;7.18;;;4.50;99.90;;;;;;5136835;28;20043;-90
2023/04/09 04:45:18;;;;;;;15.48;7.82;;;4.50;99.90;;;;;;5137034;28;20024;-91
2023/04/09 04:47:44;;;;;;;14.77;8.07;;;4.50;99.90;;;;;;5136154;28;20042;-91
2023/04/09 04:50:10;;;;;;;16.17;7.13;;;4.50;99.90;;;;;;5136363;28;20020;-90
2023/04/09 04:52:37;;;;;;;16.35;7.13;;;4.50;99.90;;;;;;5136230;28;20028;-90
2023/04/09 04:55:03;;;;;;;13.13;7.78;;;4.50;99.90;;;;;;5136546;28;20265;-90
2023/04/09 04:57:29;;;;;;;14.80;7.10;;;4.50;99.90;;;;;;5136266;28;20099;-90
2023/04/09 04:59:54;;;;;;;14.35;7.72;;;4.40;99.90;;;;;;5134678;28;20051;-91
2023/04/09 05:02:20;;;;;;;19.33;7.97;;;4.40;99.90;;;;;;5133659;28;20023;-90
2023/04/09 05:04:46;;;;;;;15.63;8.05;;;4.40;99.90;;;;;;5133423;28;20054;-91
2023/04/09 05:07:11;;;;;;;15.93;8.05;;;4.40;99.90;;;;;;5133954;28;20028;-90
2023/04/09 05:09:37;;;;;;;13.88;7.22;;;4.40;99.90;;;;;;5133983;28;20107;-90
2023/04/09 05:12:03;;;;;;;17.05;8.02;;;4.40;99.90;;;;;;5134647;28;20112;-90
2023/04/09 05:14:28;;;;;;;14.40;7.65;;;4.40;99.90;;;;;;5135341;28;20032;-90
2023/04/09 05:16:54;;;;;;;15.60;8.05;;;4.30;99.90;;;;;;5134837;28;20034;-92
2023/04/09 05:19:20;;;;;;;18.42;7.70;;;4.30;99.90;;;;;;5134490;28;20007;-90
2023/04/09 05:21:45;;;;;;;16.85;7.95;;;4.30;99.90;;;;;;5134534;28;20422;-91
2023/04/09 05:24:11;;;;;;;18.88;9.63;;;4.40;99.90;;;;;;5134615;28;20015;-90
2023/04/09 05:26:37;;;;;;;15.00;8.20;;;4.40;99.90;;;;;;5133209;28;20035;-91
2023/04/09 05:29:06;;;;;;;14.73;8.02;;;4.40;99.90;;;;;;5133384;28;20070;-91
2023/04/09 05:31:32;;;;;;;13.80;7.90;;;4.40;99.90;;;;;;5134153;28;20038;-91
2023/04/09 05:33:57;;;;;;;18.27;8.20;;;4.50;99.90;;;;;;5124608;28;20027;-92
2023/04/09 05:36:23;;;;;;;14.85;7.60;;;4.40;99.90;;;;;;5133888;28;20083;-93
2023/04/09 05:38:52;;;;;;;11.90;7.30;;;4.40;99.90;;;;;;5134435;28;20024;-91
2023/04/09 05:41:17;;;;;;;11.95;6.90;;;4.40;99.90;;;;;;5135519;28;20043;-91
2023/04/09 05:43:43;;;;;;;14.85;7.40;;;4.30;99.90;;;;;;5135599;28;20023;-90
2023/04/09 05:46:09;;;;;;;17.23;8.40;;;4.20;99.90;;;;;;5136298;28;20031;-91
2023/04/09 05:48:38;;;;;;;14.93;7.28;;;4.20;99.90;;;;;;5136138;28;20031;-91
2023/04/09 05:51:03;;;;;;;17.27;8.50;;;4.20;99.90;;;;;;5131533;28;20488;-91
2023/04/09 05:53:33;;;;;;;16.08;8.10;;;4.20;99.90;;;;;;5126774;28;20066;-91
2023/04/09 05:55:59;;;;;;;14.32;7.53;;;4.20;99.90;;;;;;5129475;28;20020;-90
2023/04/09 05:58:27;;;;;;;15.60;8.40;;;4.20;99.90;;;;;;5128955;28;20031;-91
2023/04/09 06:00:53;;;;;;;15.88;9.23;;;4.30;99.90;;;;;;5126089;28;20031;-92
2023/04/09 06:03:19;;;;;;;19.48;9.00;;;4.30;99.90;;;;;;5134254;28;20004;-90
2023/04/09 06:05:45;;;;;;;17.23;9.52;;;4.40;99.90;;;;;;5140249;27;20104;-90
2023/04/09 06:08:12;;;;;;;14.90;7.63;;;4.40;99.90;;;;;;5134182;28;20034;-90
2023/04/09 06:10:38;;;;;;;15.80;8.43;;;4.50;99.90;;;;;;5133889;28;20016;-91
2023/04/09 06:13:05;;;;;;;17.23;9.60;;;4.50;99.90;;;;;;5134518;28;20018;-90
2023/04/09 06:15:30;;;;;;;16.40;8.55;;;4.50;99.90;;;;;;5124573;28;20043;-91
2023/04/09 06:17:56;;;;;;;22.02;9.50;;;4.50;99.90;;;;;;5132954;28;20024;-90
2023/04/09 06:20:22;;;;;;;16.98;8.95;;;4.60;99.90;;;;;;5133370;28;20370;-91
2023/04/09 06:22:47;;;;;;;18.63;9.38;;;4.60;99.90;;;;;;5133226;28;20038;-90
2023/04/09 06:25:13;;;;;;;21.65;9.20;;;4.70;99.90;;;;;;5131740;28;20020;-91
2023/04/09 06:27:39;;;;;;;17.45;8.50;;;4.70;99.90;;;;;;5130296;28;20036;-90
2023/04/09 06:30:05;;;;;;;21.92;10.13;;;4.80;99.90;;;;;;5130984;28;20461;-91
2023/04/09 06:32:31;;;;;;;19.55;9.85;;;4.80;99.90;;;;;;5129543;28;20027;-90
2023/04/09 06:34:57;;;;;;;17.48;9.48;;;4.80;99.90;;;;;;5129346;28;20039;-91
2023/04/09 06:37:23;;;;;;;20.08;10.70;;;4.80;99.90;;;;;;5129353;28;20035;-91
2023/04/09 06:39:48;;;;;;;25.60;12.73;;;4.80;99.90;;;;;;5126397;28;20051;-90
2023/04/09 06:42:14;;;;;;;35.33;15.38;;;4.80;99.90;;;;;;5125774;28;20019;-90
2023/04/09 06:44:40;;;;;;;39.17;18.23;;;4.90;99.90;;;;;;5106525;28;20034;-91
2023/04/09 06:47:07;;;;;;;47.47;20.77;;;5.00;99.90;;;;;;5128885;28;20073;-90
2023/04/09 06:49:33;;;;;;;53.10;23.00;;;5.10;99.90;;;;;;5132678;28;20136;-91
2023/04/09 06:51:59;;;;;;;59.05;22.75;;;5.10;99.90;;;;;;5120443;28;20036;-91
2023/04/09 06:54:27;;;;;;;48.08;20.45;;;5.20;99.90;;;;;;5116359;28;20044;-91
2023/04/09 06:56:53;;;;;;;40.35;19.35;;;5.30;99.90;;;;;;5109657;28;20028;-90
2023/04/09 06:59:19;;;;;;;44.55;18.65;;;5.40;99.90;;;;;;5113809;28;20614;-90
2023/04/09 07:01:46;;;;;;;45.22;19.05;;;5.40;99.90;;;;;;5111634;28;20023;-90
2023/04/09 07:04:12;;;;;;;45.20;18.60;;;5.40;99.90;;;;;;5113462;28;20051;-90
2023/04/09 07:06:39;;;;;;;48.60;19.52;;;5.50;99.90;;;;;;5114312;28;20048;-90
2023/04/09 07:09:05;;;;;;;44.80;19.17;;;5.50;99.90;;;;;;5115475;28;20024;-88
2023/04/09 07:11:31;;;;;;;53.38;22.63;;;5.50;99.90;;;;;;5114055;28;20031;-88
2023/04/09 07:13:58;;;;;;;62.03;22.05;;;5.60;99.90;;;;;;5120179;28;20107;-90
2023/04/09 07:16:24;;;;;;;58.13;23.75;;;5.60;99.90;;;;;;5114493;28;20031;-90
2023/04/09 07:18:49;;;;;;;56.20;24.30;;;5.70;99.90;;;;;;5114658;28;20068;-89
2023/04/09 07:21:15;;;;;;;65.10;24.00;;;5.70;99.90;;;;;;5114801;28;20049;-89
2023/04/09 07:23:41;;;;;;;60.70;25.05;;;5.70;99.90;;;;;;5119570;28;20027;-92
2023/04/09 07:26:07;;;;;;;65.25;25.25;;;5.80;99.90;;;;;;5132171;28;20028;-90
2023/04/09 07:28:33;;;;;;;60.97;25.92;;;5.80;99.90;;;;;;5129966;28;20035;-90
2023/04/09 07:31:01;;;;;;;46.08;20.15;;;5.90;99.90;;;;;;5132399;28;20019;-90
2023/04/09 07:33:28;;;;;;;59.30;25.40;;;5.90;99.90;;;;;;5126886;28;20024;-92
2023/04/09 07:35:53;;;;;;;70.93;25.67;;;5.90;99.90;;;;;;5118117;28;20022;-91
2023/04/09 07:38:19;;;;;;;62.63;25.42;;;6.00;99.90;;;;;;5117207;28;20020;-92
2023/04/09 07:40:45;;;;;;;71.65;27.33;;;6.00;99.90;;;;;;5116928;28;20015;-91
2023/04/09 07:43:10;;;;;;;59.83;25.02;;;6.00;99.90;;;;;;5116735;28;20391;-91
2023/04/09 07:45:36;;;;;;;64.88;25.35;;;6.00;99.90;;;;;;5116835;28;20024;-91
2023/04/09 07:48:02;;;;;;;66.47;26.30;;;6.10;99.90;;;;;;5117092;28;20032;-92
2023/04/09 07:50:28;;;;;;;61.70;24.90;;;6.10;99.90;;;;;;5116923;28;20034;-91
2023/04/09 07:52:54;;;;;;;60.55;24.30;;;6.10;99.90;;;;;;5116580;28;20015;-90
2023/04/09 07:55:20;;;;;;;61.58;25.50;;;6.10;99.90;;;;;;5116722;28;20047;-91
2023/04/09 07:57:45;;;;;;;61.10;25.33;;;6.10;99.90;;;;;;5117108;28;20076;-90
2023/04/09 08:00:11;;;;;;;57.97;24.60;;;6.10;99.90;;;;;;5117195;28;20388;-91
2023/04/09 08:02:37;;;;;;;68.43;28.10;;;6.20;99.90;;;;;;5117355;28;20086;-89
2023/04/09 08:05:03;;;;;;;69.30;27.13;;;6.20;99.90;;;;;;5118591;28;20063;-92
2023/04/09 08:07:29;;;;;;;53.67;21.58;;;6.30;99.90;;;;;;5115926;28;20122;-92
2023/04/09 08:09:55;;;;;;;63.65;24.88;;;6.30;99.90;;;;;;5112065;28;20020;-92
2023/04/09 08:12:20;;;;;;;66.55;25.88;;;6.30;99.90;;;;;;5118017;28;20026;-91
2023/04/09 08:14:46;;;;;;;64.57;24.60;;;6.30;99.90;;;;;;5118263;28;20534;-92
2023/04/09 08:17:12;;;;;;;61.05;25.40;;;6.30;99.90;;;;;;5117341;28;20034;-93
2023/04/09 08:19:37;;;;;;;54.40;23.13;;;6.40;99.90;;;;;;5116704;28;20016;-92
2023/04/09 08:22:05;;;;;;;57.80;23.73;;;6.40;99.90;;;;;;5122353;28;20016;-91
2023/04/09 08:24:31;;;;;;;53.92;23.63;;;6.40;99.90;;;;;;5117075;28;20031;-92
2023/04/09 08:26:57;;;;;;;57.67;24.50;;;6.50;99.90;;;;;;5119734;28;20034;-92
2023/04/09 08:29:23;;;;;;;52.95;23.13;;;6.50;99.90;;;;;;5131405;28;20031;-91
2023/04/09 08:31:48;;;;;;;58.03;22.98;;;6.60;99.90;;;;;;5118165;28;20609;-91
2023/04/09 08:34:16;;;;;;;54.95;22.02;;;6.70;99.90;;;;;;5121488;28;20026;-92
2023/04/09 08:36:44;;;;;;;47.08;21.85;;;6.70;99.90;;;;;;5122470;28;20024;-91
2023/04/09 08:39:10;;;;;;;45.70;20.50;;;6.80;99.90;;;;;;5117713;28;20028;-90
2023/04/09 08:41:42;;;;;;;51.78;21.20;;;6.90;99.90;;;;;;5116573;28;20032;-90
2023/04/09 08:44:08;;;;;;;49.40;20.85;;;6.90;99.90;;;;;;5117144;28;20536;-92
2023/04/09 08:46:35;;;;;;;48.58;19.52;;;7.00;99.90;;;;;;5118916;28;20058;-91
2023/04/09 08:49:01;;;;;;;48.83;19.48;;;7.00;99.90;;;;;;5119065;28;20040;-90
2023/04/09 08:51:27;;;;;;;53.30;21.27;;;7.00;99.90;;;;;;5117892;28;20487;-91
2023/04/09 08:54:02;;;;;;;52.63;22.13;;;7.10;99.90;;;;;;5128381;28;20027;-92
2023/04/09 08:56:28;;;;;;;52.08;20.80;;;7.10;99.90;;;;;;5117159;28;20433;-92
2023/04/09 08:58:54;;;;;;;53.58;22.52;;;7.10;99.90;;;;;;5111177;28;20052;-92
2023/04/09 09:01:25;;;;;;;53.72;22.25;;;7.10;99.90;;;;;;5116091;28;20035;-91
2023/04/09 09:03:56;;;;;;;54.60;22.13;;;7.10;99.90;;;;;;5123904;28;20016;-91
2023/04/09 09:06:28;;;;;;;55.80;23.33;;;7.10;99.90;;;;;;5118463;28;20047;-90
2023/04/09 09:09:15;;;;;;;50.92;19.52;;;7.10;99.90;;;;;;5115161;28;20028;-91
2023/04/09 09:11:44;;;;;;;61.58;23.95;;;7.10;99.90;;;;;;5124474;28;20035;-91
2023/04/09 09:14:12;;;;;;;53.63;21.75;;;7.10;99.90;;;;;;5115508;28;20023;-91
2023/04/09 09:16:42;;;;;;;58.58;23.25;;;7.10;99.90;;;;;;5115661;28;20130;-92
2023/04/09 09:19:23;;;;;;;58.28;23.80;;;7.10;99.90;;;;;;5115554;28;20180;-91
2023/04/09 09:21:59;;;;;;;62.40;22.88;;;7.10;99.90;;;;;;5117322;28;20023;-92
2023/04/09 09:24:25;;;;;;;53.35;22.83;;;7.20;99.90;;;;;;5129369;28;20022;-93
2023/04/09 09:26:51;;;;;;;60.78;24.30;;;7.30;99.90;;;;;;5132610;28;20127;-91
2023/04/09 09:29:18;;;;;;;55.63;23.42;;;7.30;99.90;;;;;;5121057;28;20031;-92
2023/04/09 09:31:49;;;;;;;53.38;21.60;;;7.30;99.90;;;;;;5104848;28;20027;-93
2023/04/09 09:34:18;;;;;;;47.85;21.65;;;7.40;99.90;;;;;;5121068;28;20032;-92
2023/04/09 09:36:44;;;;;;;52.75;22.80;;;7.40;99.90;;;;;;5115780;28;20024;-92
2023/04/09 09:39:11;;;;;;;51.05;22.02;;;7.40;99.90;;;;;;5116742;28;20059;-93
2023/04/09 09:41:39;;;;;;;50.05;19.98;;;7.50;99.90;;;;;;5124739;28;20068;-92
2023/04/09 09:44:09;;;;;;;47.67;21.30;;;7.60;99.90;;;;;;5129469;28;20016;-91
2023/04/09 09:46:41;;;;;;;45.03;20.40;;;7.60;99.90;;;;;;5138390;27;20084;-92
2023/04/09 09:49:07;;;;;;;45.40;20.27;;;7.70;99.90;;;;;;5138584;27;20065;-90
2023/04/09 09:51:36;;;;;;;47.60;21.90;;;7.70;99.90;;;;;;5125942;28;20031;-92
2023/04/09 09:54:02;;;;;;;51.97;21.92;;;7.70;99.90;;;;;;5128033;28;20023;-92
2023/04/09 09:56:34;;;;;;;47.90;22.50;;;7.80;99.90;;;;;;5118060;28;20024;-91
2023/04/09 09:59:04;;;;;;;48.08;21.63;;;7.80;99.90;;;;;;5136428;28;20106;-92
2023/04/09 10:01:31;;;;;;;52.75;21.73;;;7.90;99.90;;;;;;5116455;28;20012;-93
2023/04/09 10:04:00;;;;;;;49.75;19.88;;;7.90;99.90;;;;;;5124954;28;20024;-90
2023/04/09 10:06:26;;;;;;;51.15;19.33;;;7.90;99.90;;;;;;5110482;28;20047;-93
2023/04/09 10:08:57;;;;;;;49.65;20.13;;;8.00;99.90;;;;;;5113634;28;20023;-94
2023/04/09 10:11:23;;;;;;;42.55;18.65;;;8.10;99.90;;;;;;5109149;28;20043;-92
2023/04/09 10:14:00;;;;;;;40.75;18.83;;;8.20;99.90;;;;;;5109918;28;20036;-91
2023/04/09 10:16:27;;;;;;;41.33;18.30;;;8.30;99.90;;;;;;5111506;28;20023;-93
2023/04/09 10:18:57;;;;;;;42.90;19.73;;;8.50;99.90;;;;;;5128577;28;20507;-93
2023/04/09 10:21:42;;;;;;;38.92;18.90;;;8.60;99.90;;;;;;5117586;28;20051;-94
2023/04/09 10:24:09;;;;;;;42.60;18.65;;;8.70;99.90;;;;;;5112842;28;20035;-92
2023/04/09 10:26:39;;;;;;;42.60;19.38;;;8.90;99.90;;;;;;5099290;28;20028;-92
2023/04/09 10:29:13;;;;;;;39.88;18.77;;;9.10;99.90;;;;;;5110636;28;20028;-91
2023/04/09 10:31:48;;;;;;;42.90;19.52;;;9.30;99.90;;;;;;5121646;28;20027;-92
2023/04/09 10:34:20;;;;;;;39.80;17.92;;;9.50;99.90;;;;;;5126027;28;20089;-91
2023/04/09 10:36:53;;;;;;;45.42;20.92;;;9.70;99.90;;;;;;5118188;28;20051;-92
2023/04/09 10:39:19;;;;;;;35.05;16.75;;;9.80;99.90;;;;;;5122746;28;20023;-93
2023/04/09 10:41:47;;;;;;;32.72;17.13;;;9.90;99.90;;;;;;5124751;28;20023;-93
2023/04/09 10:44:25;;;;;;;35.33;16.20;;;10.10;99.90;;;;;;5135979;28;20016;-91
2023/04/09 10:46:54;;;;;;;31.45;16.40;;;10.40;99.90;;;;;;5125176;28;20020;-89
2023/04/09 10:49:25;;;;;;;35.63;17.25;;;10.60;99.90;;;;;;5132480;28;20023;-91
2023/04/09 10:52:00;;;;;;;33.38;15.90;;;10.80;99.90;;;;;;5136434;28;20034;-90
2023/04/09 10:54:49;;;;;;;32.28;15.68;;;11.10;99.90;;;;;;5133284;28;20020;-90
2023/04/09 10:57:20;;;;;;;26.77;12.80;;;11.60;99.90;;;;;;5131583;28;20477;-92
2023/04/09 10:59:55;;;;;;;29.58;14.40;;;11.90;99.90;;;;;;5116082;28;20035;-93
2023/04/09 11:02:39;;;;;;;28.25;14.90;;;12.10;99.90;;;;;;5127672;28;20027;-90
2023/04/09 11:05:18;;;;;;;28.73;14.75;;;12.30;99.90;;;;;;5139622;28;20043;-91
2023/04/09 11:07:51;;;;;;;28.63;14.82;;;12.60;99.90;;;;;;5137300;28;20031;-90
2023/04/09 11:10:17;;;;;;;29.98;14.75;;;12.80;99.90;;;;;;5140519;28;20024;-90
2023/04/09 11:12:45;;;;;;;33.22;17.00;;;13.00;99.90;;;;;;5140070;28;20079;-92
2023/04/09 11:15:20;;;;;;;32.72;16.80;;;13.10;97.90;;;;;;5139264;28;20035;-90
2023/04/09 11:17:46;;;;;;;25.58;13.77;;;13.10;97.50;;;;;;5136375;28;20519;-91
2023/04/09 11:20:33;;;;;;;28.05;12.82;;;13.10;97.40;;;;;;5130076;28;20043;-90
2023/04/09 11:22:59;;;;;;;22.92;13.05;;;13.10;96.60;;;;;;5135538;28;20047;-89
2023/04/09 11:25:27;;;;;;;25.25;12.98;;;13.00;96.00;;;;;;5129871;28;20027;-92
2023/04/09 11:27:53;;;;;;;27.85;13.55;;;13.10;95.60;;;;;;5137861;28;20034;-90
2023/04/09 11:30:20;;;;;;;22.33;12.77;;;13.20;95.50;;;;;;5138544;28;20029;-91
2023/04/09 11:32:47;;;;;;;23.17;12.60;;;13.40;94.40;;;;;;5139153;28;20023;-88
2023/04/09 11:35:14;;;;;;;23.60;13.10;;;13.60;93.20;;;;;;5139587;28;20028;-90
2023/04/09 11:37:42;;;;;;;27.67;14.25;;;13.60;91.90;;;;;;5136800;28;20019;-90
2023/04/09 11:40:17;;;;;;;33.60;16.45;;;13.60;91.70;;;;;;5137645;28;20020;-90
2023/04/09 11:42:44;;;;;;;26.40;13.65;;;13.70;92.00;;;;;;5137281;28;20016;-91
2023/04/09 11:45:11;;;;;;;25.17;13.75;;;13.90;91.50;;;;;;5135970;28;20023;-91
2023/04/09 11:47:39;;;;;;;24.25;13.60;;;13.80;89.70;;;;;;5136041;28;20090;-91
2023/04/09 11:50:06;;;;;;;25.13;14.18;;;13.80;90.50;;;;;;5136430;28;20058;-92
2023/04/09 11:52:34;;;;;;;26.80;13.75;;;13.90;90.60;;;;;;5134653;28;20057;-91
2023/04/09 11:55:01;;;;;;;25.33;13.93;;;14.10;90.50;;;;;;5134863;28;20042;-92
2023/04/09 11:57:44;;;;;;;28.13;14.52;;;14.30;89.80;;;;;;5133711;28;20362;-90
2023/04/09 12:00:15;;;;;;;22.17;12.88;;;14.40;89.60;;;;;;5129228;28;20028;-92
2023/04/09 12:02:46;;;;;;;23.13;13.05;;;14.60;89.10;;;;;;5127080;28;20024;-92
2023/04/09 12:05:26;;;;;;;23.95;13.18;;;14.80;89.20;;;;;;5123966;28;20043;-92
2023/04/09 12:07:55;;;;;;;;;;;15.00;88.10;;;;;;5125055;28;20042;-92
2023/04/09 12:10:29;;;;;;;21.80;12.85;;;15.20;86.50;;;;;;5120241;28;20352;-91
2023/04/09 12:13:01;;;;;;;26.08;14.13;;;15.30;85.10;;;;;;5118659;28;20473;-90
2023/04/09 12:15:31;;;;;;;22.75;13.63;;;15.40;85.20;;;;;;5117933;28;20020;-91
2023/04/09 12:17:57;;;;;;;22.60;13.32;;;15.60;84.80;;;;;;5115790;28;20028;-91
2023/04/09 12:20:33;;;;;;;20.23;13.13;;;15.80;84.40;;;;;;5119451;28;20020;-91
2023/04/09 12:23:02;;;;;;;17.88;11.40;;;16.00;82.80;;;;;;5115957;28;20035;-91
2023/04/09 12:25:31;;;;;;;22.42;13.73;;;15.90;81.90;;;;;;5116011;28;20016;-91
2023/04/09 12:27:57;;;;;;;22.83;12.77;;;15.80;81.40;;;;;;5116282;28;20091;-90
2023/04/09 12:30:24;;;;;;;17.42;11.20;;;15.80;81.30;;;;;;5116169;28;20036;-92
2023/04/09 12:32:50;;;;;;;20.38;12.63;;;15.90;81.30;;;;;;5117438;28;20035;-90
2023/04/09 12:35:16;;;;;;;19.73;11.45;;;16.10;80.90;;;;;;5116658;28;20019;-90
2023/04/09 12:37:42;;;;;;;21.35;12.80;;;16.10;80.00;;;;;;5116784;28;20508;-91
2023/04/09 12:40:08;;;;;;;19.85;12.13;;;16.10;79.60;;;;;;5117908;28;20031;-90
2023/04/09 12:42:34;;;;;;;20.45;12.55;;;15.90;78.90;;;;;;5116992;28;20024;-92
2023/04/09 12:45:00;;;;;;;23.58;12.20;;;15.70;79.40;;;;;;5118222;28;20027;-91